sensor_id;sensor_type;location;lat;lon;timestamp;P1;durP1;ratioP1;P2;durP2;ratioP2
45252;SDS011;63171;50.520;30.486;2023-01-09T00:00:10;23.10;;;13.48;;
45252;SDS011;63171;50.520;30.486;2023-01-09T00:01:01;22.30;;;12.18;;
45252;SDS011;63171;50.520;30.486;2023-01-09T00:01:59;28.65;;;15.18;;
45252;SDS011;63171;50.520;30.486;2023-01-09T00:02:49;22.88;;;12.82;;
45252;SDS011;63171;50.520;30.486;2023-01-09T00:03:40;24.02;;;13.40;;
45252;SDS011;63171;50.520;30.486;2023-01-09T00:04:30;29.00;;;13.10;;
45252;SDS011;63171;50.520;30.486;2023-01-09T00:05:21;22.48;;;12.77;;
45252;SDS011;63171;50.520;30.486;2023-01-09T00:06:11;23.92;;;12.73;;
45252;SDS011;63171;50.520;30.486;2023-01-09T00:07:02;29.00;;;13.93;;
45252;SDS011;63171;50.520;30.486;2023-01-09T00:07:52;25.95;;;14.75;;
45252;SDS011;63171;50.520;30.486;2023-01-09T00:08:45;25.42;;;13.30;;
45252;SDS011;63171;50.520;30.486;2023-01-09T00:09:35;24.25;;;14.98;;
45252;SDS011;63171;50.520;30.486;2023-01-09T00:10:25;23.60;;;14.88;;
45252;SDS011;63171;50.520;30.486;2023-01-09T00:11:15;28.17;;;14.48;;
45252;SDS011;63171;50.520;30.486;2023-01-09T00:12:06;21.25;;;13.73;;
45252;SDS011;63171;50.520;30.486;2023-01-09T00:12:56;25.77;;;13.75;;
45252;SDS011;63171;50.520;30.486;2023-01-09T00:13:47;25.05;;;14.32;;
45252;SDS011;63171;50.520;30.486;2023-01-09T00:14:37;25.10;;;12.63;;
45252;SDS011;63171;50.520;30.486;2023-01-09T00:15:27;21.42;;;14.55;;
45252;SDS011;63171;50.520;30.486;2023-01-09T00:16:17;22.92;;;15.23;;
45252;SDS011;63171;50.520;30.486;2023-01-09T00:17:08;29.27;;;14.13;;
45252;SDS011;63171;50.520;30.486;2023-01-09T00:17:58;23.17;;;14.13;;
45252;SDS011;63171;50.520;30.486;2023-01-09T00:18:49;23.70;;;13.02;;
45252;SDS011;63171;50.520;30.486;2023-01-09T00:19:39;20.50;;;13.02;;
45252;SDS011;63171;50.520;30.486;2023-01-09T00:20:29;24.83;;;14.00;;
45252;SDS011;63171;50.520;30.486;2023-01-09T00:21:19;25.85;;;13.77;;
45252;SDS011;63171;50.520;30.486;2023-01-09T00:22:10;21.83;;;12.40;;
45252;SDS011;63171;50.520;30.486;2023-01-09T00:23:00;33.70;;;14.96;;
45252;SDS011;63171;50.520;30.486;2023-01-09T00:23:53;23.40;;;13.35;;
45252;SDS011;63171;50.520;30.486;2023-01-09T00:24:43;21.73;;;13.63;;
45252;SDS011;63171;50.520;30.486;2023-01-09T00:25:34;24.33;;;13.65;;
45252;SDS011;63171;50.520;30.486;2023-01-09T00:26:24;23.85;;;13.07;;
45252;SDS011;63171;50.520;30.486;2023-01-09T00:27:15;21.30;;;11.88;;
45252;SDS011;63171;50.520;30.486;2023-01-09T00:28:04;27.05;;;15.05;;
45252;SDS011;63171;50.520;30.486;2023-01-09T00:28:55;22.98;;;12.27;;
45252;SDS011;63171;50.520;30.486;2023-01-09T00:29:45;26.20;;;14.18;;
45252;SDS011;63171;50.520;30.486;2023-01-09T00:30:37;22.17;;;12.75;;
45252;SDS011;63171;50.520;30.486;2023-01-09T00:31:27;28.75;;;14.50;;
45252;SDS011;63171;50.520;30.486;2023-01-09T00:32:18;19.38;;;12.07;;
45252;SDS011;63171;50.520;30.486;2023-01-09T00:33:08;25.55;;;13.93;;
45252;SDS011;63171;50.520;30.486;2023-01-09T00:33:59;27.17;;;13.73;;
45252;SDS011;63171;50.520;30.486;2023-01-09T00:34:51;25.98;;;13.82;;
45252;SDS011;63171;50.520;30.486;2023-01-09T00:35:42;30.80;;;13.52;;
45252;SDS011;63171;50.520;30.486;2023-01-09T00:36:32;25.08;;;13.35;;
45252;SDS011;63171;50.520;30.486;2023-01-09T00:37:23;23.15;;;14.82;;
45252;SDS011;63171;50.520;30.486;2023-01-09T00:38:13;26.75;;;13.68;;
45252;SDS011;63171;50.520;30.486;2023-01-09T00:39:05;24.60;;;13.57;;
45252;SDS011;63171;50.520;30.486;2023-01-09T00:39:55;17.05;;;12.73;;
45252;SDS011;63171;50.520;30.486;2023-01-09T00:40:46;21.92;;;13.00;;
45252;SDS011;63171;50.520;30.486;2023-01-09T00:41:36;22.95;;;12.23;;
45252;SDS011;63171;50.520;30.486;2023-01-09T00:42:30;22.83;;;10.27;;
45252;SDS011;63171;50.520;30.486;2023-01-09T00:43:25;27.13;;;14.27;;
45252;SDS011;63171;50.520;30.486;2023-01-09T00:44:19;29.80;;;13.38;;
45252;SDS011;63171;50.520;30.486;2023-01-09T00:45:14;23.52;;;11.77;;
45252;SDS011;63171;50.520;30.486;2023-01-09T00:46:08;21.88;;;11.68;;
45252;SDS011;63171;50.520;30.486;2023-01-09T00:46:59;17.85;;;13.63;;
45252;SDS011;63171;50.520;30.486;2023-01-09T00:47:56;23.85;;;11.55;;
45252;SDS011;63171;50.520;30.486;2023-01-09T00:48:51;20.83;;;12.93;;
45252;SDS011;63171;50.520;30.486;2023-01-09T00:49:42;22.30;;;13.88;;
45252;SDS011;63171;50.520;30.486;2023-01-09T00:50:33;31.92;;;14.00;;
45252;SDS011;63171;50.520;30.486;2023-01-09T00:51:25;28.80;;;14.35;;
45252;SDS011;63171;50.520;30.486;2023-01-09T00:52:15;24.85;;;13.45;;
45252;SDS011;63171;50.520;30.486;2023-01-09T00:53:07;24.17;;;12.02;;
45252;SDS011;63171;50.520;30.486;2023-01-09T00:54:02;27.30;;;12.82;;
45252;SDS011;63171;50.520;30.486;2023-01-09T00:54:55;16.17;;;11.93;;
45252;SDS011;63171;50.520;30.486;2023-01-09T00:55:45;22.52;;;11.80;;
45252;SDS011;63171;50.520;30.486;2023-01-09T00:56:36;21.83;;;12.95;;
45252;SDS011;63171;50.520;30.486;2023-01-09T00:57:26;17.30;;;12.68;;
45252;SDS011;63171;50.520;30.486;2023-01-09T00:58:17;19.60;;;12.57;;
45252;SDS011;63171;50.520;30.486;2023-01-09T00:59:58;18.40;;;12.30;;
45252;SDS011;63171;50.520;30.486;2023-01-09T01:02:23;27.08;;;13.10;;
45252;SDS011;63171;50.520;30.486;2023-01-09T01:03:13;21.83;;;13.20;;
45252;SDS011;63171;50.520;30.486;2023-01-09T01:04:04;26.23;;;13.07;;
45252;SDS011;63171;50.520;30.486;2023-01-09T01:05:08;28.48;;;13.93;;
45252;SDS011;63171;50.520;30.486;2023-01-09T01:06:16;23.63;;;13.45;;
45252;SDS011;63171;50.520;30.486;2023-01-09T01:07:25;20.40;;;12.13;;
45252;SDS011;63171;50.520;30.486;2023-01-09T01:08:26;20.33;;;11.45;;
45252;SDS011;63171;50.520;30.486;2023-01-09T01:09:17;28.80;;;14.23;;
45252;SDS011;63171;50.520;30.486;2023-01-09T01:10:10;22.15;;;12.27;;
45252;SDS011;63171;50.520;30.486;2023-01-09T01:11:05;22.98;;;12.35;;
45252;SDS011;63171;50.520;30.486;2023-01-09T01:11:57;32.80;;;14.52;;
45252;SDS011;63171;50.520;30.486;2023-01-09T01:12:48;26.92;;;13.18;;
45252;SDS011;63171;50.520;30.486;2023-01-09T01:13:40;25.88;;;12.63;;
45252;SDS011;63171;50.520;30.486;2023-01-09T01:14:31;23.60;;;12.85;;
45252;SDS011;63171;50.520;30.486;2023-01-09T01:15:21;23.83;;;12.13;;
45252;SDS011;63171;50.520;30.486;2023-01-09T01:16:12;24.70;;;12.55;;
45252;SDS011;63171;50.520;30.486;2023-01-09T01:17:53;22.58;;;11.40;;
45252;SDS011;63171;50.520;30.486;2023-01-09T01:18:43;37.78;;;12.75;;
45252;SDS011;63171;50.520;30.486;2023-01-09T01:19:35;22.40;;;11.95;;
45252;SDS011;63171;50.520;30.486;2023-01-09T01:20:25;22.94;;;11.58;;
45252;SDS011;63171;50.520;30.486;2023-01-09T01:21:16;23.00;;;13.35;;
45252;SDS011;63171;50.520;30.486;2023-01-09T01:22:06;20.33;;;11.48;;
45252;SDS011;63171;50.520;30.486;2023-01-09T01:22:57;23.25;;;12.82;;
45252;SDS011;63171;50.520;30.486;2023-01-09T01:23:46;25.83;;;12.88;;
45252;SDS011;63171;50.520;30.486;2023-01-09T01:24:37;22.27;;;11.05;;
45252;SDS011;63171;50.520;30.486;2023-01-09T01:25:28;27.33;;;13.25;;
45252;SDS011;63171;50.520;30.486;2023-01-09T01:26:19;24.30;;;12.15;;
45252;SDS011;63171;50.520;30.486;2023-01-09T01:27:09;22.48;;;12.82;;
45252;SDS011;63171;50.520;30.486;2023-01-09T01:28:00;23.67;;;11.52;;
45252;SDS011;63171;50.520;30.486;2023-01-09T01:28:50;28.92;;;13.05;;
45252;SDS011;63171;50.520;30.486;2023-01-09T01:29:41;23.45;;;13.23;;
45252;SDS011;63171;50.520;30.486;2023-01-09T01:30:30;22.08;;;12.93;;
45252;SDS011;63171;50.520;30.486;2023-01-09T01:31:22;25.52;;;11.77;;
45252;SDS011;63171;50.520;30.486;2023-01-09T01:32:12;24.55;;;11.75;;
45252;SDS011;63171;50.520;30.486;2023-01-09T01:33:02;23.42;;;13.77;;
45252;SDS011;63171;50.520;30.486;2023-01-09T01:33:52;20.80;;;11.05;;
45252;SDS011;63171;50.520;30.486;2023-01-09T01:34:43;23.20;;;10.73;;
45252;SDS011;63171;50.520;30.486;2023-01-09T01:35:33;23.80;;;12.32;;
45252;SDS011;63171;50.520;30.486;2023-01-09T01:36:24;23.63;;;11.43;;
45252;SDS011;63171;50.520;30.486;2023-01-09T01:37:14;23.25;;;11.77;;
45252;SDS011;63171;50.520;30.486;2023-01-09T01:38:05;29.20;;;12.20;;
45252;SDS011;63171;50.520;30.486;2023-01-09T01:38:54;21.48;;;12.23;;
45252;SDS011;63171;50.520;30.486;2023-01-09T01:39:45;19.75;;;11.40;;
45252;SDS011;63171;50.520;30.486;2023-01-09T01:40:36;27.23;;;12.05;;
45252;SDS011;63171;50.520;30.486;2023-01-09T01:41:28;18.90;;;10.38;;
45252;SDS011;63171;50.520;30.486;2023-01-09T01:42:18;17.20;;;10.90;;
45252;SDS011;63171;50.520;30.486;2023-01-09T01:43:10;21.00;;;11.35;;
45252;SDS011;63171;50.520;30.486;2023-01-09T01:44:01;21.05;;;10.30;;
45252;SDS011;63171;50.520;30.486;2023-01-09T01:44:55;23.92;;;12.50;;
45252;SDS011;63171;50.520;30.486;2023-01-09T01:45:47;23.27;;;12.07;;
45252;SDS011;63171;50.520;30.486;2023-01-09T01:46:38;22.98;;;12.50;;
45252;SDS011;63171;50.520;30.486;2023-01-09T01:47:30;21.73;;;11.50;;
45252;SDS011;63171;50.520;30.486;2023-01-09T01:48:25;20.38;;;11.35;;
45252;SDS011;63171;50.520;30.486;2023-01-09T01:49:19;17.00;;;10.95;;
45252;SDS011;63171;50.520;30.486;2023-01-09T01:50:11;26.92;;;12.18;;
45252;SDS011;63171;50.520;30.486;2023-01-09T01:51:07;17.25;;;11.68;;
45252;SDS011;63171;50.520;30.486;2023-01-09T01:51:58;20.00;;;10.93;;
45252;SDS011;63171;50.520;30.486;2023-01-09T01:52:51;24.60;;;12.13;;
45252;SDS011;63171;50.520;30.486;2023-01-09T01:53:47;22.10;;;12.38;;
45252;SDS011;63171;50.520;30.486;2023-01-09T01:54:40;19.55;;;11.23;;
45252;SDS011;63171;50.520;30.486;2023-01-09T01:55:32;18.10;;;11.85;;
45252;SDS011;63171;50.520;30.486;2023-01-09T01:56:26;22.45;;;10.52;;
45252;SDS011;63171;50.520;30.486;2023-01-09T01:57:18;27.95;;;11.82;;
45252;SDS011;63171;50.520;30.486;2023-01-09T01:58:09;19.75;;;11.35;;
45252;SDS011;63171;50.520;30.486;2023-01-09T01:59:04;23.10;;;11.20;;
45252;SDS011;63171;50.520;30.486;2023-01-09T01:59:58;19.15;;;10.48;;
45252;SDS011;63171;50.520;30.486;2023-01-09T02:00:53;23.33;;;12.60;;
45252;SDS011;63171;50.520;30.486;2023-01-09T02:01:44;29.08;;;13.07;;
45252;SDS011;63171;50.520;30.486;2023-01-09T02:02:39;20.83;;;11.32;;
45252;SDS011;63171;50.520;30.486;2023-01-09T02:03:31;29.35;;;11.40;;
45252;SDS011;63171;50.520;30.486;2023-01-09T02:04:22;31.23;;;12.00;;
45252;SDS011;63171;50.520;30.486;2023-01-09T02:05:12;23.58;;;12.30;;
45252;SDS011;63171;50.520;30.486;2023-01-09T02:06:03;27.42;;;12.50;;
45252;SDS011;63171;50.520;30.486;2023-01-09T02:06:53;21.85;;;11.52;;
45252;SDS011;63171;50.520;30.486;2023-01-09T02:07:46;22.88;;;10.85;;
45252;SDS011;63171;50.520;30.486;2023-01-09T02:08:35;23.60;;;11.23;;
45252;SDS011;63171;50.520;30.486;2023-01-09T02:09:26;16.60;;;10.70;;
45252;SDS011;63171;50.520;30.486;2023-01-09T02:10:16;22.33;;;12.02;;
45252;SDS011;63171;50.520;30.486;2023-01-09T02:11:11;25.08;;;12.15;;
45252;SDS011;63171;50.520;30.486;2023-01-09T02:12:13;21.73;;;10.60;;
45252;SDS011;63171;50.520;30.486;2023-01-09T02:13:06;22.75;;;12.05;;
45252;SDS011;63171;50.520;30.486;2023-01-09T02:13:57;19.13;;;9.73;;
45252;SDS011;63171;50.520;30.486;2023-01-09T02:14:51;17.92;;;10.45;;
45252;SDS011;63171;50.520;30.486;2023-01-09T02:15:49;21.58;;;11.00;;
45252;SDS011;63171;50.520;30.486;2023-01-09T02:16:51;20.67;;;10.73;;
45252;SDS011;63171;50.520;30.486;2023-01-09T02:19:15;15.85;;;9.27;;
45252;SDS011;63171;50.520;30.486;2023-01-09T02:21:39;19.77;;;9.70;;
45252;SDS011;63171;50.520;30.486;2023-01-09T02:22:41;21.00;;;9.82;;
45252;SDS011;63171;50.520;30.486;2023-01-09T02:23:46;19.00;;;10.43;;
45252;SDS011;63171;50.520;30.486;2023-01-09T02:25:12;15.60;;;9.85;;
45252;SDS011;63171;50.520;30.486;2023-01-09T02:28:12;23.73;;;10.85;;
45252;SDS011;63171;50.520;30.486;2023-01-09T02:30:51;20.08;;;10.18;;
45252;SDS011;63171;50.520;30.486;2023-01-09T02:31:45;20.65;;;9.73;;
45252;SDS011;63171;50.520;30.486;2023-01-09T02:32:43;23.60;;;9.82;;
45252;SDS011;63171;50.520;30.486;2023-01-09T02:33:39;18.70;;;9.98;;
45252;SDS011;63171;50.520;30.486;2023-01-09T02:34:41;24.00;;;10.57;;
45252;SDS011;63171;50.520;30.486;2023-01-09T02:35:42;18.60;;;9.38;;
45252;SDS011;63171;50.520;30.486;2023-01-09T02:36:44;19.90;;;9.38;;
45252;SDS011;63171;50.520;30.486;2023-01-09T02:37:42;14.95;;;10.07;;
45252;SDS011;63171;50.520;30.486;2023-01-09T02:38:40;16.88;;;9.80;;
45252;SDS011;63171;50.520;30.486;2023-01-09T02:39:49;16.88;;;9.60;;
45252;SDS011;63171;50.520;30.486;2023-01-09T02:40:46;23.90;;;10.23;;
45252;SDS011;63171;50.520;30.486;2023-01-09T02:41:43;21.25;;;10.45;;
45252;SDS011;63171;50.520;30.486;2023-01-09T02:42:37;14.30;;;9.50;;
45252;SDS011;63171;50.520;30.486;2023-01-09T02:43:30;24.10;;;10.48;;
45252;SDS011;63171;50.520;30.486;2023-01-09T02:44:22;18.42;;;9.10;;
45252;SDS011;63171;50.520;30.486;2023-01-09T02:45:12;17.45;;;10.00;;
45252;SDS011;63171;50.520;30.486;2023-01-09T02:46:05;17.75;;;10.23;;
45252;SDS011;63171;50.520;30.486;2023-01-09T02:47:04;16.35;;;9.85;;
45252;SDS011;63171;50.520;30.486;2023-01-09T02:47:56;19.45;;;10.40;;
45252;SDS011;63171;50.520;30.486;2023-01-09T02:48:47;21.33;;;9.63;;
45252;SDS011;63171;50.520;30.486;2023-01-09T02:49:41;27.05;;;10.95;;
45252;SDS011;63171;50.520;30.486;2023-01-09T02:50:35;19.33;;;9.70;;
45252;SDS011;63171;50.520;30.486;2023-01-09T02:51:34;19.42;;;10.50;;
45252;SDS011;63171;50.520;30.486;2023-01-09T02:52:30;18.42;;;9.20;;
45252;SDS011;63171;50.520;30.486;2023-01-09T02:53:41;19.08;;;9.73;;
45252;SDS011;63171;50.520;30.486;2023-01-09T02:54:41;20.17;;;9.40;;
45252;SDS011;63171;50.520;30.486;2023-01-09T02:55:45;20.88;;;10.20;;
45252;SDS011;63171;50.520;30.486;2023-01-09T02:58:05;19.92;;;9.13;;
45252;SDS011;63171;50.520;30.486;2023-01-09T02:59:04;17.30;;;8.82;;
45252;SDS011;63171;50.520;30.486;2023-01-09T03:00:12;14.90;;;8.26;;
45252;SDS011;63171;50.520;30.486;2023-01-09T03:01:18;21.42;;;10.20;;
45252;SDS011;63171;50.520;30.486;2023-01-09T03:02:21;23.02;;;9.15;;
45252;SDS011;63171;50.520;30.486;2023-01-09T03:03:25;21.08;;;10.90;;
45252;SDS011;63171;50.520;30.486;2023-01-09T03:04:27;20.10;;;8.82;;
45252;SDS011;63171;50.520;30.486;2023-01-09T03:05:28;20.70;;;8.70;;
45252;SDS011;63171;50.520;30.486;2023-01-09T03:06:22;38.47;;;10.93;;
45252;SDS011;63171;50.520;30.486;2023-01-09T03:07:20;21.33;;;9.27;;
45252;SDS011;63171;50.520;30.486;2023-01-09T03:08:17;21.55;;;9.52;;
45252;SDS011;63171;50.520;30.486;2023-01-09T03:09:10;20.73;;;11.23;;
45252;SDS011;63171;50.520;30.486;2023-01-09T03:10:06;19.75;;;8.30;;
45252;SDS011;63171;50.520;30.486;2023-01-09T03:11:01;15.02;;;9.20;;
45252;SDS011;63171;50.520;30.486;2023-01-09T03:11:56;16.73;;;8.85;;
45252;SDS011;63171;50.520;30.486;2023-01-09T03:12:52;18.65;;;8.50;;
45252;SDS011;63171;50.520;30.486;2023-01-09T03:13:44;16.98;;;8.35;;
45252;SDS011;63171;50.520;30.486;2023-01-09T03:14:39;18.38;;;8.63;;
45252;SDS011;63171;50.520;30.486;2023-01-09T03:15:35;17.55;;;8.43;;
45252;SDS011;63171;50.520;30.486;2023-01-09T03:16:30;20.08;;;11.02;;
45252;SDS011;63171;50.520;30.486;2023-01-09T03:17:23;13.10;;;8.13;;
45252;SDS011;63171;50.520;30.486;2023-01-09T03:18:18;18.00;;;10.80;;
45252;SDS011;63171;50.520;30.486;2023-01-09T03:19:13;17.23;;;9.13;;
45252;SDS011;63171;50.520;30.486;2023-01-09T03:20:06;17.98;;;9.32;;
45252;SDS011;63171;50.520;30.486;2023-01-09T03:20:59;17.17;;;8.55;;
45252;SDS011;63171;50.520;30.486;2023-01-09T03:21:50;17.73;;;9.60;;
45252;SDS011;63171;50.520;30.486;2023-01-09T03:22:44;17.58;;;9.02;;
45252;SDS011;63171;50.520;30.486;2023-01-09T03:23:44;14.98;;;8.98;;
45252;SDS011;63171;50.520;30.486;2023-01-09T03:24:36;19.02;;;9.82;;
45252;SDS011;63171;50.520;30.486;2023-01-09T03:26:18;17.10;;;10.20;;
45252;SDS011;63171;50.520;30.486;2023-01-09T03:27:59;15.50;;;9.10;;
45252;SDS011;63171;50.520;30.486;2023-01-09T03:28:50;16.25;;;8.68;;
45252;SDS011;63171;50.520;30.486;2023-01-09T03:29:41;14.18;;;9.57;;
45252;SDS011;63171;50.520;30.486;2023-01-09T03:30:31;18.90;;;8.57;;
45252;SDS011;63171;50.520;30.486;2023-01-09T03:31:23;22.05;;;8.57;;
45252;SDS011;63171;50.520;30.486;2023-01-09T03:32:15;16.15;;;9.95;;
45252;SDS011;63171;50.520;30.486;2023-01-09T03:33:05;15.65;;;9.77;;
45252;SDS011;63171;50.520;30.486;2023-01-09T03:33:55;14.32;;;7.95;;
45252;SDS011;63171;50.520;30.486;2023-01-09T03:34:46;19.65;;;10.02;;
45252;SDS011;63171;50.520;30.486;2023-01-09T03:35:36;15.93;;;9.43;;
45252;SDS011;63171;50.520;30.486;2023-01-09T03:36:27;16.70;;;8.13;;
45252;SDS011;63171;50.520;30.486;2023-01-09T03:37:17;13.23;;;8.57;;
45252;SDS011;63171;50.520;30.486;2023-01-09T03:38:08;20.40;;;9.73;;
45252;SDS011;63171;50.520;30.486;2023-01-09T03:38:58;17.70;;;9.25;;
45252;SDS011;63171;50.520;30.486;2023-01-09T03:39:48;19.75;;;9.52;;
45252;SDS011;63171;50.520;30.486;2023-01-09T03:40:38;19.55;;;10.75;;
45252;SDS011;63171;50.520;30.486;2023-01-09T03:41:31;15.27;;;8.82;;
45252;SDS011;63171;50.520;30.486;2023-01-09T03:42:20;16.95;;;10.13;;
45252;SDS011;63171;50.520;30.486;2023-01-09T03:43:11;15.45;;;8.40;;
45252;SDS011;63171;50.520;30.486;2023-01-09T03:44:01;12.93;;;9.38;;
45252;SDS011;63171;50.520;30.486;2023-01-09T03:44:51;26.80;;;10.30;;
45252;SDS011;63171;50.520;30.486;2023-01-09T03:45:41;14.70;;;9.27;;
45252;SDS011;63171;50.520;30.486;2023-01-09T03:46:32;17.83;;;9.60;;
45252;SDS011;63171;50.520;30.486;2023-01-09T03:47:24;14.90;;;8.70;;
45252;SDS011;63171;50.520;30.486;2023-01-09T03:48:14;17.98;;;9.35;;
45252;SDS011;63171;50.520;30.486;2023-01-09T03:49:05;13.20;;;9.38;;
45252;SDS011;63171;50.520;30.486;2023-01-09T03:49:55;23.25;;;9.63;;
45252;SDS011;63171;50.520;30.486;2023-01-09T03:50:46;17.33;;;9.63;;
45252;SDS011;63171;50.520;30.486;2023-01-09T03:51:37;15.82;;;8.98;;
45252;SDS011;63171;50.520;30.486;2023-01-09T03:52:28;20.65;;;11.43;;
45252;SDS011;63171;50.520;30.486;2023-01-09T03:53:18;19.00;;;9.93;;
45252;SDS011;63171;50.520;30.486;2023-01-09T03:54:09;14.93;;;9.57;;
45252;SDS011;63171;50.520;30.486;2023-01-09T03:54:59;19.38;;;8.45;;
45252;SDS011;63171;50.520;30.486;2023-01-09T03:55:50;13.60;;;9.18;;
45252;SDS011;63171;50.520;30.486;2023-01-09T03:56:41;12.30;;;8.93;;
45252;SDS011;63171;50.520;30.486;2023-01-09T03:57:32;18.05;;;8.82;;
45252;SDS011;63171;50.520;30.486;2023-01-09T03:58:22;15.70;;;10.82;;
45252;SDS011;63171;50.520;30.486;2023-01-09T03:59:13;16.83;;;9.95;;
45252;SDS011;63171;50.520;30.486;2023-01-09T04:00:03;16.17;;;8.80;;
45252;SDS011;63171;50.520;30.486;2023-01-09T04:01:02;16.17;;;10.10;;
45252;SDS011;63171;50.520;30.486;2023-01-09T04:01:53;18.52;;;10.00;;
45252;SDS011;63171;50.520;30.486;2023-01-09T04:02:45;15.07;;;8.55;;
45252;SDS011;63171;50.520;30.486;2023-01-09T04:03:34;20.25;;;9.55;;
45252;SDS011;63171;50.520;30.486;2023-01-09T04:04:25;12.43;;;8.73;;
45252;SDS011;63171;50.520;30.486;2023-01-09T04:05:15;12.02;;;8.57;;
45252;SDS011;63171;50.520;30.486;2023-01-09T04:06:06;12.05;;;8.57;;
45252;SDS011;63171;50.520;30.486;2023-01-09T04:06:56;14.88;;;8.90;;
45252;SDS011;63171;50.520;30.486;2023-01-09T04:07:47;25.30;;;9.82;;
45252;SDS011;63171;50.520;30.486;2023-01-09T04:08:37;12.93;;;7.90;;
45252;SDS011;63171;50.520;30.486;2023-01-09T04:09:28;13.80;;;8.07;;
45252;SDS011;63171;50.520;30.486;2023-01-09T04:10:18;13.52;;;8.77;;
45252;SDS011;63171;50.520;30.486;2023-01-09T04:11:08;15.32;;;8.80;;
45252;SDS011;63171;50.520;30.486;2023-01-09T04:11:58;20.98;;;9.65;;
45252;SDS011;63171;50.520;30.486;2023-01-09T04:12:49;19.00;;;8.95;;
45252;SDS011;63171;50.520;30.486;2023-01-09T04:13:39;13.38;;;9.52;;
45252;SDS011;63171;50.520;30.486;2023-01-09T04:14:30;17.23;;;9.13;;
45252;SDS011;63171;50.520;30.486;2023-01-09T04:16:10;17.10;;;7.70;;
45252;SDS011;63171;50.520;30.486;2023-01-09T04:17:00;14.43;;;9.07;;
45252;SDS011;63171;50.520;30.486;2023-01-09T04:17:52;14.38;;;7.80;;
45252;SDS011;63171;50.520;30.486;2023-01-09T04:18:42;13.02;;;8.43;;
45252;SDS011;63171;50.520;30.486;2023-01-09T04:19:33;15.30;;;8.85;;
45252;SDS011;63171;50.520;30.486;2023-01-09T04:20:23;15.23;;;8.43;;
45252;SDS011;63171;50.520;30.486;2023-01-09T04:21:13;13.88;;;7.88;;
45252;SDS011;63171;50.520;30.486;2023-01-09T04:22:03;12.73;;;8.73;;
45252;SDS011;63171;50.520;30.486;2023-01-09T04:22:54;18.58;;;9.50;;
45252;SDS011;63171;50.520;30.486;2023-01-09T04:23:43;13.90;;;9.18;;
45252;SDS011;63171;50.520;30.486;2023-01-09T04:24:35;14.77;;;7.82;;
45252;SDS011;63171;50.520;30.486;2023-01-09T04:25:24;16.88;;;9.23;;
45252;SDS011;63171;50.520;30.486;2023-01-09T04:26:15;18.65;;;10.35;;
45252;SDS011;63171;50.520;30.486;2023-01-09T04:27:05;18.95;;;9.45;;
45252;SDS011;63171;50.520;30.486;2023-01-09T04:27:56;17.15;;;9.43;;
45252;SDS011;63171;50.520;30.486;2023-01-09T04:28:46;12.88;;;8.10;;
45252;SDS011;63171;50.520;30.486;2023-01-09T04:29:36;9.98;;;7.35;;
45252;SDS011;63171;50.520;30.486;2023-01-09T04:30:26;12.48;;;8.88;;
45252;SDS011;63171;50.520;30.486;2023-01-09T04:31:17;15.63;;;8.85;;
45252;SDS011;63171;50.520;30.486;2023-01-09T04:32:07;13.98;;;8.73;;
45252;SDS011;63171;50.520;30.486;2023-01-09T04:32:59;16.23;;;9.55;;
45252;SDS011;63171;50.520;30.486;2023-01-09T04:33:49;16.92;;;9.65;;
45252;SDS011;63171;50.520;30.486;2023-01-09T04:34:40;11.82;;;8.45;;
45252;SDS011;63171;50.520;30.486;2023-01-09T04:35:29;20.88;;;8.77;;
45252;SDS011;63171;50.520;30.486;2023-01-09T04:36:20;11.45;;;6.97;;
45252;SDS011;63171;50.520;30.486;2023-01-09T04:37:11;12.85;;;9.10;;
45252;SDS011;63171;50.520;30.486;2023-01-09T04:38:01;14.48;;;8.73;;
45252;SDS011;63171;50.520;30.486;2023-01-09T04:38:52;15.07;;;9.27;;
45252;SDS011;63171;50.520;30.486;2023-01-09T04:39:42;13.05;;;8.35;;
45252;SDS011;63171;50.520;30.486;2023-01-09T04:40:32;13.50;;;8.65;;
45252;SDS011;63171;50.520;30.486;2023-01-09T04:41:22;16.52;;;9.80;;
45252;SDS011;63171;50.520;30.486;2023-01-09T04:42:31;12.98;;;8.02;;
45252;SDS011;63171;50.520;30.486;2023-01-09T04:43:21;16.83;;;10.85;;
45252;SDS011;63171;50.520;30.486;2023-01-09T04:44:11;14.65;;;8.20;;
45252;SDS011;63171;50.520;30.486;2023-01-09T04:45:01;18.05;;;9.23;;
45252;SDS011;63171;50.520;30.486;2023-01-09T04:45:51;16.20;;;10.27;;
45252;SDS011;63171;50.520;30.486;2023-01-09T04:46:42;13.77;;;9.70;;
45252;SDS011;63171;50.520;30.486;2023-01-09T04:47:31;12.15;;;8.68;;
45252;SDS011;63171;50.520;30.486;2023-01-09T04:48:23;13.68;;;8.73;;
45252;SDS011;63171;50.520;30.486;2023-01-09T04:49:13;16.23;;;8.35;;
45252;SDS011;63171;50.520;30.486;2023-01-09T04:50:04;15.20;;;8.85;;
45252;SDS011;63171;50.520;30.486;2023-01-09T04:50:54;16.33;;;10.93;;
45252;SDS011;63171;50.520;30.486;2023-01-09T04:51:45;12.82;;;8.32;;
45252;SDS011;63171;50.520;30.486;2023-01-09T04:52:35;16.08;;;9.13;;
45252;SDS011;63171;50.520;30.486;2023-01-09T04:53:26;16.00;;;9.40;;
45252;SDS011;63171;50.520;30.486;2023-01-09T04:54:16;20.33;;;9.95;;
45252;SDS011;63171;50.520;30.486;2023-01-09T04:55:07;19.38;;;10.60;;
45252;SDS011;63171;50.520;30.486;2023-01-09T04:55:57;13.43;;;9.35;;
45252;SDS011;63171;50.520;30.486;2023-01-09T04:56:48;14.05;;;10.02;;
45252;SDS011;63171;50.520;30.486;2023-01-09T04:57:38;12.52;;;8.65;;
45252;SDS011;63171;50.520;30.486;2023-01-09T04:58:28;14.82;;;9.25;;
45252;SDS011;63171;50.520;30.486;2023-01-09T04:59:18;15.48;;;8.90;;
45252;SDS011;63171;50.520;30.486;2023-01-09T05:00:09;14.93;;;9.40;;
45252;SDS011;63171;50.520;30.486;2023-01-09T05:01:00;14.50;;;9.30;;
45252;SDS011;63171;50.520;30.486;2023-01-09T05:01:51;14.23;;;8.85;;
45252;SDS011;63171;50.520;30.486;2023-01-09T05:02:42;18.15;;;9.70;;
45252;SDS011;63171;50.520;30.486;2023-01-09T05:03:34;14.82;;;8.77;;
45252;SDS011;63171;50.520;30.486;2023-01-09T05:04:24;14.95;;;8.10;;
45252;SDS011;63171;50.520;30.486;2023-01-09T05:05:15;12.82;;;8.90;;
45252;SDS011;63171;50.520;30.486;2023-01-09T05:06:05;11.43;;;8.55;;
45252;SDS011;63171;50.520;30.486;2023-01-09T05:06:56;22.90;;;10.48;;
45252;SDS011;63171;50.520;30.486;2023-01-09T05:07:46;13.18;;;8.55;;
45252;SDS011;63171;50.520;30.486;2023-01-09T05:08:36;14.55;;;10.18;;
45252;SDS011;63171;50.520;30.486;2023-01-09T05:09:26;17.20;;;10.05;;
45252;SDS011;63171;50.520;30.486;2023-01-09T05:10:17;14.73;;;8.75;;
45252;SDS011;63171;50.520;30.486;2023-01-09T05:11:07;13.45;;;9.82;;
45252;SDS011;63171;50.520;30.486;2023-01-09T05:11:58;12.98;;;9.15;;
45252;SDS011;63171;50.520;30.486;2023-01-09T05:12:48;14.73;;;9.00;;
45252;SDS011;63171;50.520;30.486;2023-01-09T05:13:40;20.60;;;10.73;;
45252;SDS011;63171;50.520;30.486;2023-01-09T05:14:30;17.25;;;10.02;;
45252;SDS011;63171;50.520;30.486;2023-01-09T05:15:21;11.90;;;8.88;;
45252;SDS011;63171;50.520;30.486;2023-01-09T05:16:11;14.77;;;8.32;;
45252;SDS011;63171;50.520;30.486;2023-01-09T05:17:01;12.30;;;9.27;;
45252;SDS011;63171;50.520;30.486;2023-01-09T05:17:51;19.17;;;8.95;;